Time;durP1;ratioP1;P1;durP2;ratioP2;P2;SDS_P1;SDS_P2;PMS_P1;PMS_P2;Temp;Humidity;BMP_temperature;BMP_pressure;BME280_temperature;BME280_humidity;BME280_pressure;Samples;Min_cycle;Max_cycle;Signal;HPM_P1;HPM_P2
2022/05/11 00:01:26;;;;;;;11.07;7.00;;;;;;;-145.18;100.00;60484.78;5040907;28;20037;-67
2022/05/11 00:03:53;;;;;;;10.17;6.67;;;;;;;-145.18;100.00;60484.78;5038399;28;20111;-67
2022/05/11 00:06:19;;;;;;;12.83;6.80;;;;;;;-145.18;100.00;60484.78;5044491;28;20035;-67
2022/05/11 00:08:44;;;;;;;10.50;6.83;;;;;;;-145.18;100.00;60484.78;5034270;28;20478;-67
2022/05/11 00:11:10;;;;;;;11.10;6.60;;;;;;;-145.18;100.00;60484.78;5043948;28;20041;-67
2022/05/11 00:13:35;;;;;;;10.33;6.90;;;;;;;-145.18;100.00;60484.78;5039982;28;20029;-67
2022/05/11 00:16:01;;;;;;;10.57;6.73;;;;;;;-145.18;100.00;60484.78;5032255;28;20102;-67
2022/05/11 00:18:26;;;;;;;13.00;7.13;;;;;;;-145.18;100.00;60484.78;5046421;28;20041;-67
2022/05/11 00:20:52;;;;;;;13.13;7.33;;;;;;;-145.18;100.00;60484.78;5049141;28;20431;-67
2022/05/11 00:23:17;;;;;;;11.27;7.43;;;;;;;-145.18;100.00;60484.78;5043281;28;20071;-67
2022/05/11 00:25:44;;;;;;;16.67;7.47;;;;;;;-145.18;100.00;60484.78;5042930;28;20025;-67
2022/05/11 00:28:10;;;;;;;11.50;7.33;;;;;;;-145.18;100.00;60484.78;5037314;28;20033;-67
2022/05/11 00:30:36;;;;;;;10.67;7.00;;;;;;;-145.18;100.00;60484.78;5042511;28;20022;-67
2022/05/11 00:33:02;;;;;;;12.20;7.63;;;;;;;-145.18;100.00;60484.78;5030981;28;20116;-67
2022/05/11 00:35:29;;;;;;;11.83;6.93;;;;;;;-145.18;100.00;60484.78;5038715;28;20028;-67
2022/05/11 00:37:55;;;;;;;13.03;7.37;;;;;;;-145.18;100.00;60484.78;5033530;28;20025;-67
2022/05/11 00:40:22;;;;;;;16.17;7.50;;;;;;;-145.18;100.00;60484.78;5047082;28;20123;-67
2022/05/11 00:42:48;;;;;;;15.77;8.50;;;;;;;-145.18;100.00;60484.78;5035327;28;20041;-67
2022/05/11 00:45:14;;;;;;;12.60;7.80;;;;;;;-145.18;100.00;60484.78;5036715;28;20098;-67
2022/05/11 00:47:46;;;;;;;13.23;9.10;;;;;;;-145.18;100.00;60484.78;5037886;28;20036;-67
2022/05/11 00:50:32;;;;;;;15.10;9.00;;;;;;;-145.18;100.00;60484.78;5036758;28;20077;-67
2022/05/11 00:53:11;;;;;;;16.80;9.63;;;;;;;-145.18;100.00;60484.78;5049390;28;20051;-67
2022/05/11 00:55:42;;;;;;;12.50;8.77;;;;;;;-145.18;100.00;60484.78;5051062;28;20032;-67
2022/05/11 00:58:13;;;;;;;15.30;8.32;;;;;;;-145.18;100.00;60484.78;5039272;28;20056;-67
2022/05/11 01:00:38;;;;;;;15.02;9.13;;;;;;;-145.18;100.00;60484.78;5042628;28;20042;-67
2022/05/11 01:03:11;;;;;;;13.33;9.40;;;;;;;-145.18;100.00;60484.78;5044732;28;20547;-67
2022/05/11 01:05:36;;;;;;;12.67;8.37;;;;;;;-145.18;100.00;60484.78;5038727;28;20120;-67
2022/05/11 01:08:02;;;;;;;12.60;8.82;;;;;;;-145.18;100.00;60484.78;4988764;28;1259157;-67
2022/05/11 01:10:30;;;;;;;16.17;9.47;;;;;;;-145.18;100.00;60484.78;5039809;28;20574;-67
2022/05/11 01:13:01;;;;;;;16.83;9.17;;;;;;;-145.18;100.00;60484.78;5043964;28;20174;-67
2022/05/11 01:15:31;;;;;;;16.70;9.95;;;;;;;-145.18;100.00;60484.78;5044663;28;20037;-67
2022/05/11 01:17:57;;;;;;;16.73;10.03;;;;;;;-145.18;100.00;60484.78;5048190;28;20067;-67
2022/05/11 01:20:24;;;;;;;17.20;9.57;;;;;;;-145.18;100.00;60484.78;5040423;28;20067;-67
2022/05/11 01:22:49;;;;;;;17.57;10.17;;;;;;;-145.18;100.00;60484.78;5048955;28;20125;-67
2022/05/11 01:25:16;;;;;;;12.80;9.37;;;;;;;-145.18;100.00;60484.78;5035815;28;20112;-67
2022/05/11 01:27:46;;;;;;;17.60;10.07;;;;;;;-145.18;100.00;60484.78;5035631;28;20109;-67
2022/05/11 01:30:23;;;;;;;15.80;9.57;;;;;;;-145.18;100.00;60484.78;5048516;28;20588;-67
2022/05/11 01:32:51;;;;;;;17.77;9.60;;;;;;;-145.18;100.00;60484.78;5048374;28;20040;-67
2022/05/11 01:35:27;;;;;;;14.57;10.17;;;;;;;-145.18;100.00;60484.78;5038628;28;20047;-67
2022/05/11 01:38:07;;;;;;;12.97;9.13;;;;;;;-145.18;100.00;60484.78;5047447;28;20024;-67
2022/05/11 01:40:32;;;;;;;15.30;10.17;;;;;;;-145.18;100.00;60484.78;5042729;28;20029;-67
2022/05/11 01:42:58;;;;;;;14.77;10.37;;;;;;;-145.18;100.00;60484.78;5051038;28;20397;-67
2022/05/11 01:45:24;;;;;;;16.33;10.47;;;;;;;-145.18;100.00;60484.78;5040786;28;20025;-67
2022/05/11 01:47:54;;;;;;;15.07;10.47;;;;;;;-145.18;100.00;60484.78;5043300;28;20119;-67
2022/05/11 01:50:19;;;;;;;15.67;9.63;;;;;;;-145.18;100.00;60484.78;5047420;28;20026;-67
2022/05/11 01:52:45;;;;;;;15.17;9.50;;;;;;;-145.18;100.00;60484.78;5045656;28;20431;-67
2022/05/11 01:55:10;;;;;;;16.40;9.87;;;;;;;-145.18;100.00;60484.78;5044825;28;20120;-67
2022/05/11 01:57:36;;;;;;;14.03;9.97;;;;;;;-145.18;100.00;60484.78;5044561;28;20037;-67
2022/05/11 02:00:03;;;;;;;15.40;9.97;;;;;;;-145.18;100.00;60484.78;5033776;28;20033;-67
2022/05/11 02:02:28;;;;;;;17.80;10.13;;;;;;;-145.18;100.00;60484.78;5043285;28;20443;-67
2022/05/11 02:07:51;;;;;;;14.10;10.70;;;;;;;-145.18;100.00;60484.78;5036703;28;20076;-67
2022/05/11 02:10:23;;;;;;;15.97;10.90;;;;;;;-145.18;100.00;60484.78;5041851;28;20098;-67
2022/05/11 02:12:49;;;;;;;15.20;11.20;;;;;;;-145.18;100.00;60484.78;5044140;28;20103;-67
2022/05/11 02:15:16;;;;;;;15.97;10.67;;;;;;;-145.18;100.00;60484.78;5032877;28;20029;-67
2022/05/11 02:17:43;;;;;;;17.27;11.03;;;;;;;-145.18;100.00;60484.78;5040227;28;20112;-67
2022/05/11 02:20:10;;;;;;;14.73;10.93;;;;;;;-145.18;100.00;60484.78;5035203;28;20040;-67
2022/05/11 02:22:36;;;;;;;17.10;10.63;;;;;;;-145.18;100.00;60484.78;5047520;28;20396;-67
2022/05/11 02:25:03;;;;;;;17.43;11.40;;;;;;;-145.18;100.00;60484.78;5039186;28;20080;-67
2022/05/11 02:27:31;;;;;;;16.90;12.07;;;;;;;-145.18;100.00;60484.78;5049646;28;20108;-67
2022/05/11 02:29:57;;;;;;;19.80;12.40;;;;;;;-145.18;100.00;60484.78;5039152;28;20614;-69
2022/05/11 02:32:23;;;;;;;20.53;13.27;;;;;;;-145.18;100.00;60484.78;5043025;28;20044;-69
2022/05/11 02:37:33;;;;;;;21.90;12.90;;;;;;;-145.18;100.00;60484.78;5038646;28;20098;-70
2022/05/11 02:39:59;;;;;;;18.10;12.17;;;;;;;-145.18;100.00;60484.78;5047195;28;20025;-70
2022/05/11 02:42:24;;;;;;;17.10;11.20;;;;;;;-145.18;100.00;60484.78;5047196;28;20031;-70
2022/05/11 02:44:50;;;;;;;28.53;12.60;;;;;;;-145.18;100.00;60484.78;5038547;28;20029;-70
2022/05/11 02:47:15;;;;;;;19.67;11.63;;;;;;;-145.18;100.00;60484.78;5035906;28;20030;-70
2022/05/11 02:49:41;;;;;;;17.83;11.03;;;;;;;-145.18;100.00;60484.78;5044270;28;20029;-70
2022/05/11 02:52:06;;;;;;;19.47;11.33;;;;;;;-145.18;100.00;60484.78;5044824;28;20051;-70
2022/05/11 02:54:32;;;;;;;17.67;12.27;;;;;;;-145.18;100.00;60484.78;5031215;28;20105;-69
2022/05/11 02:56:57;;;;;;;16.97;11.80;;;;;;;-145.18;100.00;60484.78;5039746;28;20041;-70
2022/05/11 02:59:23;;;;;;;18.33;11.80;;;;;;;-145.18;100.00;60484.78;5039241;28;20127;-67
2022/05/11 03:01:51;;;;;;;16.90;11.57;;;;;;;-145.18;100.00;60484.78;5038718;28;20075;-67
2022/05/11 03:04:16;;;;;;;16.83;12.07;;;;;;;-145.18;100.00;60484.78;5045060;28;20060;-67
2022/05/11 03:06:47;;;;;;;16.27;12.47;;;;;;;-145.18;100.00;60484.78;5033951;28;20108;-67
2022/05/11 03:09:15;;;;;;;17.17;12.20;;;;;;;-145.18;100.00;60484.78;5041689;28;20444;-67
2022/05/11 03:11:42;;;;;;;18.63;12.17;;;;;;;-145.18;100.00;60484.78;5045546;28;20484;-67
2022/05/11 03:14:09;;;;;;;18.30;11.77;;;;;;;-145.18;100.00;60484.78;5035676;28;20408;-67
2022/05/11 03:16:35;;;;;;;15.63;11.60;;;;;;;-145.18;100.00;60484.78;5040895;28;20028;-67
2022/05/11 03:19:02;;;;;;;17.17;11.50;;;;;;;-145.18;100.00;60484.78;5042936;28;20535;-67
2022/05/11 03:21:28;;;;;;;15.73;10.80;;;;;;;-145.18;100.00;60484.78;5048648;28;20048;-67
2022/05/11 03:23:54;;;;;;;15.87;9.93;;;;;;;-145.18;100.00;60484.78;5043850;28;20029;-67
2022/05/11 03:26:20;;;;;;;15.93;10.17;;;;;;;-145.18;100.00;60484.78;5046188;28;20401;-67
2022/05/11 03:28:45;;;;;;;15.70;9.93;;;;;;;-145.18;100.00;60484.78;5044203;28;20033;-67
2022/05/11 03:31:11;;;;;;;13.13;8.73;;;;;;;-145.18;100.00;60484.78;5034694;28;20037;-67
2022/05/11 03:36:21;;;;;;;16.17;8.13;;;;;;;-145.18;100.00;60484.78;5048056;28;20094;-67
2022/05/11 03:38:46;;;;;;;13.67;7.43;;;;;;;-145.18;100.00;60484.78;5044343;28;20024;-69
2022/05/11 03:41:12;;;;;;;12.60;6.77;;;;;;;-145.18;100.00;60484.78;5041638;28;20077;-70
2022/05/11 03:43:37;;;;;;;14.07;7.43;;;;;;;-145.18;100.00;60484.78;5045591;28;20029;-69
2022/05/11 03:46:02;;;;;;;10.60;7.33;;;;;;;-145.18;100.00;60484.78;5042869;28;20033;-69
2022/05/11 03:48:28;;;;;;;10.73;6.63;;;;;;;-145.18;100.00;60484.78;5033309;28;20155;-69
2022/05/11 03:50:55;;;;;;;12.50;7.37;;;;;;;-145.18;100.00;60484.78;5044159;28;20078;-69
2022/05/11 03:53:20;;;;;;;12.20;6.53;;;;;;;-145.18;100.00;60484.78;5049400;28;20171;-69
2022/05/11 03:55:46;;;;;;;11.30;6.03;;;;;;;-145.18;100.00;60484.78;5048694;28;20112;-70
2022/05/11 03:58:13;;;;;;;10.10;6.13;;;;;;;-145.18;100.00;60484.78;5039001;28;20059;-69
2022/05/11 04:00:38;;;;;;;11.07;5.90;;;;;;;-145.18;100.00;60484.78;5037214;28;20587;-69
2022/05/11 04:03:04;;;;;;;12.90;6.07;;;;;;;-145.18;100.00;60484.78;5042430;28;20105;-69
2022/05/11 04:05:31;;;;;;;9.90;5.40;;;;;;;-145.18;100.00;60484.78;5039973;28;20033;-69
2022/05/11 04:07:56;;;;;;;8.53;4.80;;;;;;;-145.18;100.00;60484.78;5050853;28;20532;-69
2022/05/11 04:10:22;;;;;;;9.73;5.57;;;;;;;-145.18;100.00;60484.78;5051395;28;20108;-69
2022/05/11 04:12:47;;;;;;;10.23;5.63;;;;;;;-145.18;100.00;60484.78;5042746;28;20037;-69
2022/05/11 04:15:14;;;;;;;9.27;5.33;;;;;;;-145.18;100.00;60484.78;5042748;28;20047;-70
2022/05/11 04:17:40;;;;;;;10.00;5.20;;;;;;;-145.18;100.00;60484.78;5051309;28;20037;-69
2022/05/11 04:20:07;;;;;;;8.93;5.10;;;;;;;-145.18;100.00;60484.78;5047169;28;20049;-69
2022/05/11 04:22:33;;;;;;;13.33;5.40;;;;;;;-145.18;100.00;60484.78;5044336;28;20044;-69
2022/05/11 04:24:59;;;;;;;10.63;5.70;;;;;;;-145.18;100.00;60484.78;5034878;28;20393;-70
2022/05/11 04:27:24;;;;;;;12.13;5.77;;;;;;;-145.18;100.00;60484.78;5052603;28;20032;-69
2022/05/11 04:29:50;;;;;;;11.50;5.50;;;;;;;-145.18;100.00;60484.78;5043627;28;20029;-69
2022/05/11 04:32:15;;;;;;;10.00;5.60;;;;;;;-145.18;100.00;60484.78;5036791;28;20112;-69
2022/05/11 04:34:41;;;;;;;11.73;5.87;;;;;;;-145.18;100.00;60484.78;5043586;28;20097;-69
2022/05/11 04:37:08;;;;;;;9.70;5.73;;;;;;;-145.18;100.00;60484.78;5051749;28;20413;-69
2022/05/11 04:39:34;;;;;;;11.67;6.03;;;;;;;-145.18;100.00;60484.78;5043753;28;20033;-69
2022/05/11 04:41:59;;;;;;;12.37;5.20;;;;;;;-145.18;100.00;60484.78;5039678;28;20123;-69
2022/05/11 04:44:25;;;;;;;9.43;5.47;;;;;;;-145.18;100.00;60484.78;5042616;28;20037;-69
2022/05/11 04:46:50;;;;;;;10.43;5.63;;;;;;;-145.18;100.00;60484.78;5042171;28;20029;-69
2022/05/11 04:49:17;;;;;;;10.57;5.33;;;;;;;-145.18;100.00;60484.78;5033858;28;20394;-69
2022/05/11 04:51:47;;;;;;;10.63;5.67;;;;;;;-145.18;100.00;60484.78;5041731;28;20145;-69
2022/05/11 04:54:13;;;;;;;13.20;5.97;;;;;;;-145.18;100.00;60484.78;5033156;28;20029;-70
2022/05/11 04:56:38;;;;;;;11.40;6.40;;;;;;;-145.18;100.00;60484.78;5036747;28;20033;-70
2022/05/11 04:59:05;;;;;;;8.53;6.13;;;;;;;-145.18;100.00;60484.78;5034842;28;20371;-70
2022/05/11 05:01:33;;;;;;;9.93;6.10;;;;;;;-145.18;100.00;60484.78;5038691;28;20036;-69
2022/05/11 05:03:58;;;;;;;11.50;5.90;;;;;;;-145.18;100.00;60484.78;5049426;28;20859;-69
2022/05/11 05:06:23;;;;;;;11.00;5.73;;;;;;;-145.18;100.00;60484.78;5034969;28;20029;-69
2022/05/11 05:08:51;;;;;;;9.27;5.13;;;;;;;-145.18;100.00;60484.78;5052244;28;20123;-70
2022/05/11 05:11:16;;;;;;;9.65;5.18;;;;;;;-145.18;100.00;60484.78;5038336;28;20433;-70
2022/05/11 05:13:41;;;;;;;8.88;5.10;;;;;;;-145.18;100.00;60484.78;5033345;28;20164;-69
2022/05/11 05:16:07;;;;;;;9.35;5.30;;;;;;;-145.18;100.00;60484.78;5038283;28;20033;-69
2022/05/11 05:18:33;;;;;;;10.18;5.53;;;;;;;-145.18;100.00;60484.78;5034270;28;20030;-70
2022/05/11 05:20:58;;;;;;;10.35;5.20;;;;;;;-145.18;100.00;60484.78;5031210;28;20406;-70
2022/05/11 05:23:24;;;;;;;9.75;5.18;;;;;;;-145.18;100.00;60484.78;5035794;28;20076;-69
2022/05/11 05:25:49;;;;;;;9.07;5.55;;;;;;;-145.18;100.00;60484.78;5036690;28;20039;-69
2022/05/11 05:31:06;;;;;;;8.98;5.38;;;;;;;-145.18;100.00;60484.78;5032534;28;20452;-69
2022/05/11 05:33:33;;;;;;;8.52;5.28;;;;;;;-145.18;100.00;60484.78;5039825;28;20480;-69
2022/05/11 05:35:59;;;;;;;8.32;5.72;;;;;;;-145.18;100.00;60484.78;5048311;28;20060;-69
2022/05/11 05:38:25;;;;;;;11.02;5.55;;;;;;;-145.18;100.00;60484.78;5043297;28;20037;-69
2022/05/11 05:40:50;;;;;;;8.15;5.07;;;;;;;-145.18;100.00;60484.78;5045092;28;20028;-70
2022/05/11 05:43:16;;;;;;;7.53;4.85;;;;;;;-145.18;100.00;60484.78;5038681;28;20037;-69
2022/05/11 05:45:50;;;;;;;10.15;5.32;;;;;;;-145.18;100.00;60484.78;5037947;28;20029;-69
2022/05/11 05:48:15;;;;;;;7.88;4.72;;;;;;;-145.18;100.00;60484.78;5030006;28;20066;-69
2022/05/11 05:50:41;;;;;;;13.73;4.55;;;;;;;-145.18;100.00;60484.78;5033750;28;20029;-69
2022/05/11 05:53:06;;;;;;;7.70;4.90;;;;;;;-145.18;100.00;60484.78;5034658;28;20025;-70
2022/05/11 05:55:32;;;;;;;7.30;4.40;;;;;;;-145.18;100.00;60484.78;5039672;28;20035;-70
2022/05/11 05:57:59;;;;;;;7.78;4.70;;;;;;;-145.18;100.00;60484.78;5036008;28;20056;-70
2022/05/11 06:00:25;;;;;;;7.90;4.03;;;;;;;-145.18;100.00;60484.78;5042496;28;20044;-69
2022/05/11 06:02:50;;;;;;;8.98;4.45;;;;;;;-145.18;100.00;60484.78;5049107;28;20033;-70
2022/05/11 06:05:16;;;;;;;6.90;4.35;;;;;;;-145.18;100.00;60484.78;5043800;28;20405;-70
2022/05/11 06:07:41;;;;;;;12.95;4.45;;;;;;;-145.18;100.00;60484.78;5036298;28;20108;-70
2022/05/11 06:10:07;;;;;;;7.15;3.90;;;;;;;-145.18;100.00;60484.78;5033924;28;20036;-69
2022/05/11 06:12:32;;;;;;;7.05;3.92;;;;;;;-145.18;100.00;60484.78;5051676;28;20079;-70
2022/05/11 06:14:58;;;;;;;7.68;4.00;;;;;;;-145.18;100.00;60484.78;5043476;28;20040;-70
2022/05/11 06:17:23;;;;;;;7.50;3.40;;;;;;;-145.18;100.00;60484.78;5037554;28;20045;-70
2022/05/11 06:19:50;;;;;;;9.07;3.63;;;;;;;-145.18;100.00;60484.78;5031895;28;20112;-67
2022/05/11 06:22:16;;;;;;;8.25;3.40;;;;;;;-145.18;100.00;60484.78;5035375;28;20025;-67
2022/05/11 06:24:42;;;;;;;5.47;3.40;;;;;;;-145.18;100.00;60484.78;5039094;28;20107;-67
2022/05/11 06:27:15;;;;;;;7.47;3.60;;;;;;;-145.18;100.00;60484.78;5051029;28;20124;-67
2022/05/11 06:29:40;;;;;;;11.75;3.60;;;;;;;-145.18;100.00;60484.78;5043668;28;20025;-67
2022/05/11 06:32:06;;;;;;;6.45;3.80;;;;;;;-145.18;100.00;60484.78;5049081;28;20495;-66
2022/05/11 06:34:31;;;;;;;6.18;3.28;;;;;;;-145.18;100.00;60484.78;5050958;28;20756;-67
2022/05/11 06:36:57;;;;;;;7.65;3.60;;;;;;;-145.18;100.00;60484.78;5050708;28;20040;-67
2022/05/11 06:39:23;;;;;;;11.00;3.55;;;;;;;-145.18;100.00;60484.78;5051358;28;20107;-67
2022/05/11 06:41:49;;;;;;;6.20;3.67;;;;;;;-145.18;100.00;60484.78;5050962;28;20435;-67
2022/05/11 06:44:14;;;;;;;5.63;3.38;;;;;;;-145.18;100.00;60484.78;5048297;28;20024;-67
2022/05/11 06:46:40;;;;;;;7.30;3.53;;;;;;;-145.18;100.00;60484.78;5046968;28;20022;-67
2022/05/11 06:49:05;;;;;;;7.22;3.63;;;;;;;-145.18;100.00;60484.78;5031233;28;20454;-67
2022/05/11 06:51:30;;;;;;;8.25;4.05;;;;;;;-145.18;100.00;60484.78;5043804;28;20043;-67
2022/05/11 06:59:28;;;;;;;6.88;3.50;;;;;;;-145.18;100.00;60484.78;5031971;28;20099;-67
2022/05/11 07:01:57;;;;;;;7.13;3.78;;;;;;;-145.18;100.00;60484.78;5042188;28;20040;-67
2022/05/11 07:04:23;;;;;;;5.80;3.13;;;;;;;-145.18;100.00;60484.78;5047905;28;20405;-67
2022/05/11 07:06:53;;;;;;;7.18;3.30;;;;;;;-145.18;100.00;60484.78;5050484;28;20029;-67
2022/05/11 07:09:24;;;;;;;6.70;3.45;;;;;;;-145.18;100.00;60484.78;5050588;28;20029;-66
2022/05/11 07:14:35;;;;;;;6.05;3.42;;;;;;;-145.18;100.00;60484.78;5048902;28;20052;-67
2022/05/11 07:17:00;;;;;;;6.55;3.85;;;;;;;-145.18;100.00;60484.78;5044061;28;20025;-67
2022/05/11 07:19:26;;;;;;;5.43;3.42;;;;;;;-145.18;100.00;60484.78;5031050;28;20025;-66
2022/05/11 07:21:52;;;;;;;6.45;3.40;;;;;;;-145.18;100.00;60484.78;5047995;28;20021;-66
2022/05/11 07:24:18;;;;;;;6.88;3.65;;;;;;;-145.18;100.00;60484.78;5050566;28;20029;-65
2022/05/11 07:26:43;;;;;;;6.70;3.70;;;;;;;-145.18;100.00;60484.78;5050258;28;20025;-66
2022/05/11 07:29:09;;;;;;;6.80;3.67;;;;;;;-145.18;100.00;60484.78;5031513;28;20034;-66
2022/05/11 07:31:34;;;;;;;9.23;3.75;;;;;;;-145.18;100.00;60484.78;5044478;28;20053;-66
2022/05/11 07:34:00;;;;;;;6.82;3.70;;;;;;;-145.18;100.00;60484.78;5030516;28;20028;-66
2022/05/11 07:36:26;;;;;;;6.85;3.47;;;;;;;-145.18;100.00;60484.78;5044301;28;20032;-66
2022/05/11 07:38:51;;;;;;;6.40;3.50;;;;;;;-145.18;100.00;60484.78;5053701;28;20389;-66
2022/05/11 07:41:17;;;;;;;5.82;3.13;;;;;;;-145.18;100.00;60484.78;5054084;28;20052;-65
2022/05/11 07:43:43;;;;;;;7.82;3.15;;;;;;;-145.18;100.00;60484.78;5048104;28;20025;-66
2022/05/11 07:46:09;;;;;;;5.65;3.38;;;;;;;-145.18;100.00;60484.78;5052668;28;20048;-65
2022/05/11 07:48:35;;;;;;;5.78;3.30;;;;;;;-145.18;100.00;60484.78;5052383;28;20048;-65
2022/05/11 07:51:00;;;;;;;4.80;3.13;;;;;;;-145.18;100.00;60484.78;5053940;28;20017;-66
2022/05/11 07:53:26;;;;;;;7.43;3.38;;;;;;;-145.18;100.00;60484.78;5054071;28;20441;-66
2022/05/11 07:59:52;;;;;;;7.57;3.17;;;;;;;-145.18;100.00;60484.78;5051012;28;20020;-66
2022/05/11 08:01:21;;;;;;;6.65;3.30;;;;;;;-145.18;100.00;60484.78;5043404;28;20088;-66
2022/05/11 08:03:46;;;;;;;5.97;2.97;;;;;;;-145.18;100.00;60484.78;5033738;28;20033;-65
2022/05/11 08:06:11;;;;;;;6.00;3.00;;;;;;;-145.18;100.00;60484.78;5045290;28;20141;-65
2022/05/11 08:08:37;;;;;;;6.18;2.80;;;;;;;-145.18;100.00;60484.78;5054079;28;20045;-65
2022/05/11 08:11:03;;;;;;;6.00;2.80;;;;;;;-145.18;100.00;60484.78;5053616;28;20043;-65
2022/05/11 08:13:30;;;;;;;5.03;2.83;;;;;;;-145.18;100.00;60484.78;5048858;28;20489;-65
2022/05/11 08:15:55;;;;;;;6.35;2.90;;;;;;;-145.18;100.00;60484.78;5053741;28;20744;-66
2022/05/11 08:18:20;;;;;;;7.00;2.67;;;;;;;-145.18;100.00;60484.78;5044233;28;20056;-65
2022/05/11 08:20:46;;;;;;;7.22;2.83;;;;;;;-145.18;100.00;60484.78;5052824;28;20534;-65
2022/05/11 08:23:13;;;;;;;8.00;3.20;;;;;;;-145.18;100.00;60484.78;5053533;28;20032;-66
2022/05/11 08:25:40;;;;;;;7.38;3.10;;;;;;;-145.18;100.00;60484.78;5047548;28;20037;-65
2022/05/11 08:28:12;;;;;;;5.65;3.05;;;;;;;-145.18;100.00;60484.78;5041072;28;20090;-65
2022/05/11 08:33:22;;;;;;;6.43;3.30;;;;;;;-145.18;100.00;60484.78;5052114;28;20040;-65
2022/05/11 08:35:57;;;;;;;6.35;3.03;;;;;;;-145.18;100.00;60484.78;5053053;28;20029;-66
2022/05/11 08:38:25;;;;;;;5.68;3.03;;;;;;;-145.18;100.00;60484.78;5053473;28;20071;-65
2022/05/11 08:41:05;;;;;;;8.65;3.40;;;;;;;-145.18;100.00;60484.78;5053054;28;20029;-65
2022/05/11 08:43:33;;;;;;;6.40;3.15;;;;;;;-145.18;100.00;60484.78;5051731;28;20029;-65
2022/05/11 08:46:17;;;;;;;6.45;3.30;;;;;;;-145.18;100.00;60484.78;5053126;28;20029;-65
2022/05/11 08:48:55;;;;;;;6.28;2.80;;;;;;;-145.18;100.00;60484.78;5034205;28;20111;-65
2022/05/11 08:51:46;;;;;;;8.40;3.40;;;;;;;-145.18;100.00;60484.78;5045984;28;20139;-65
2022/05/11 08:54:11;;;;;;;;;;;;;;;-145.18;100.00;60484.78;5033651;28;20125;-65
2022/05/11 08:56:38;;;;;;;6.88;3.38;;;;;;;-145.18;100.00;60484.78;5048190;28;20398;-66
2022/05/11 08:59:06;;;;;;;7.15;3.13;;;;;;;-145.18;100.00;60484.78;5051356;28;20466;-66
2022/05/11 09:01:45;;;;;;;6.88;2.53;;;;;;;-145.18;100.00;60484.78;5052963;28;20052;-66
2022/05/11 09:04:15;;;;;;;6.32;2.75;;;;;;;-145.18;100.00;60484.78;5033239;28;20098;-66
2022/05/11 09:06:44;;;;;;;5.20;2.75;;;;;;;-145.18;100.00;60484.78;5048527;28;20078;-66
2022/05/11 09:09:09;;;;;;;7.43;2.67;;;;;;;-145.18;100.00;60484.78;5052664;28;20078;-65
2022/05/11 09:11:55;;;;;;;4.72;2.63;;;;;;;-145.18;100.00;60484.78;5051411;28;20112;-65
2022/05/11 09:14:42;;;;;;;4.00;2.00;;;;;;;-145.18;100.00;60484.78;5035387;28;20037;-66
2022/05/11 09:17:38;;;;;;;4.63;2.20;;;;;;;-145.18;100.00;60484.78;5051798;28;20537;-65
2022/05/11 09:20:23;;;;;;;6.07;2.60;;;;;;;-145.18;100.00;60484.78;5051838;28;20057;-65
2022/05/11 09:23:02;;;;;;;4.95;2.58;;;;;;;-145.18;100.00;60484.78;5033598;28;20041;-66
2022/05/11 09:25:36;;;;;;;5.00;2.30;;;;;;;-145.18;100.00;60484.78;5033101;28;20119;-65
2022/05/11 09:28:24;;;;;;;4.45;2.15;;;;;;;-145.18;100.00;60484.78;5033192;28;20025;-66
2022/05/11 09:31:05;;;;;;;6.40;2.15;;;;;;;-145.18;100.00;60484.78;5040882;28;20476;-66
2022/05/11 09:33:57;;;;;;;7.20;2.10;;;;;;;-145.18;100.00;60484.78;5052012;28;20380;-66
2022/05/11 09:36:35;;;;;;;5.10;2.20;;;;;;;-145.18;100.00;60484.78;5052084;28;20110;-65
2022/05/11 09:39:18;;;;;;;8.70;2.45;;;;;;;-145.18;100.00;60484.78;5040640;28;20055;-66
2022/05/11 09:41:51;;;;;;;4.47;2.05;;;;;;;-145.18;100.00;60484.78;5044959;28;20074;-65
2022/05/11 09:44:21;;;;;;;4.93;2.30;;;;;;;-145.18;100.00;60484.78;5045333;28;20028;-66
2022/05/11 09:46:47;;;;;;;5.05;2.08;;;;;;;-145.18;100.00;60484.78;5043999;28;20036;-66
2022/05/11 09:49:15;;;;;;;5.35;2.00;;;;;;;-145.18;100.00;60484.78;5043282;28;20037;-66
2022/05/11 09:51:47;;;;;;;8.18;2.30;;;;;;;-145.18;100.00;60484.78;5052108;28;20090;-66
2022/05/11 09:54:18;;;;;;;;;;;;;;;-145.18;100.00;60484.78;5052605;28;20150;-66
2022/05/11 09:56:49;;;;;;;7.20;2.20;;;;;;;-145.18;100.00;60484.78;5049745;28;19916;-65
2022/05/11 09:59:19;;;;;;;8.95;2.28;;;;;;;-145.18;100.00;60484.78;5051282;28;20049;-68
2022/05/11 10:01:47;;;;;;;6.40;2.10;;;;;;;-145.18;100.00;60484.78;5050801;28;20044;-66
2022/05/11 10:04:13;;;;;;;4.53;1.73;;;;;;;-145.18;100.00;60484.78;5051136;28;20102;-66
2022/05/11 10:06:57;;;;;;;5.05;2.05;;;;;;;-145.18;100.00;60484.78;5051752;28;20534;-66
2022/05/11 10:09:31;;;;;;;5.30;1.83;;;;;;;-145.18;100.00;60484.78;5051713;28;20029;-68
2022/05/11 10:11:58;;;;;;;8.98;2.20;;;;;;;-145.18;100.00;60484.78;5039526;28;20028;-66
2022/05/11 10:22:55;;;;;;;5.88;2.10;;;;;;;-145.18;100.00;60484.78;5051022;28;20039;-67
2022/05/11 10:25:29;;;;;;;4.82;2.05;;;;;;;-145.18;100.00;60484.78;5035740;28;20107;-65
2022/05/11 10:28:14;;;;;;;5.00;2.17;;;;;;;-145.18;100.00;60484.78;5038559;28;20043;-66
2022/05/11 10:30:49;;;;;;;4.68;2.25;;;;;;;-145.18;100.00;60484.78;5046549;28;20079;-65
2022/05/11 10:33:46;;;;;;;4.57;1.90;;;;;;;-145.18;100.00;60484.78;5045799;28;20506;-66
2022/05/11 10:36:15;;;;;;;7.28;2.30;;;;;;;-145.18;100.00;60484.78;5042503;28;20025;-66
2022/05/11 10:38:58;;;;;;;8.82;1.80;;;;;;;-145.18;100.00;60484.78;5047599;28;20100;-66
2022/05/11 10:41:30;;;;;;;8.02;2.50;;;;;;;-145.18;100.00;60484.78;5048645;28;20489;-67
2022/05/11 10:44:02;;;;;;;8.93;1.90;;;;;;;-145.18;100.00;60484.78;5036468;28;20124;-66
2022/05/11 10:46:38;;;;;;;7.97;2.05;;;;;;;-145.18;100.00;60484.78;5050936;28;20029;-66
2022/05/11 10:49:23;;;;;;;6.45;1.85;;;;;;;-145.18;100.00;60484.78;5050315;28;20040;-67
2022/05/11 10:51:57;;;;;;;4.95;2.10;;;;;;;-145.18;100.00;60484.78;5050870;28;20039;-66
2022/05/11 10:54:54;;;;;;;4.13;1.63;;;;;;;-145.18;100.00;60484.78;5051143;28;20031;-66
2022/05/11 10:57:43;;;;;;;6.13;2.53;;;;;;;-145.18;100.00;60484.78;5049333;28;20496;-66
2022/05/11 11:00:15;;;;;;;4.95;2.10;;;;;;;-145.18;100.00;60484.78;5050425;28;20037;-66
2022/05/11 11:03:08;;;;;;;5.55;2.03;;;;;;;-145.18;100.00;60484.78;5050158;28;20036;-66
2022/05/11 11:05:39;;;;;;;4.90;1.88;;;;;;;-145.18;100.00;60484.78;5050804;28;20032;-66
2022/05/11 11:08:14;;;;;;;5.78;2.00;;;;;;;-145.18;100.00;60484.78;5051156;28;20032;-66
2022/05/11 11:10:52;;;;;;;5.70;2.20;;;;;;;-145.18;100.00;60484.78;5048684;28;20033;-66
2022/05/11 11:13:34;;;;;;;7.20;2.05;;;;;;;-145.18;100.00;60484.78;5049708;28;20064;-66
2022/05/11 11:16:02;;;;;;;7.47;2.05;;;;;;;-145.18;100.00;60484.78;5054813;28;20094;-66
2022/05/11 11:18:39;;;;;;;6.18;2.30;;;;;;;-145.18;100.00;60484.78;5047138;28;20025;-67
2022/05/11 11:21:08;;;;;;;5.05;2.05;;;;;;;-145.18;100.00;60484.78;5045433;28;20523;-67
2022/05/11 11:23:38;;;;;;;5.07;2.00;;;;;;;-145.18;100.00;60484.78;5055103;28;20422;-66
2022/05/11 11:26:09;;;;;;;13.00;3.50;;;;;;;-145.18;100.00;60484.78;5054305;28;20025;-67
2022/05/11 11:28:40;;;;;;;6.45;2.30;;;;;;;-145.18;100.00;60484.78;5052758;28;20033;-66
2022/05/11 11:31:09;;;;;;;5.28;2.15;;;;;;;-145.18;100.00;60484.78;5045430;28;20388;-66
2022/05/11 11:33:39;;;;;;;4.90;1.90;;;;;;;-145.18;100.00;60484.78;5043753;28;20485;-66
2022/05/11 11:36:26;;;;;;;3.97;1.85;;;;;;;-145.18;100.00;60484.78;5049783;28;20029;-67
2022/05/11 11:38:53;;;;;;;7.82;2.10;;;;;;;-145.18;100.00;60484.78;5054432;28;20025;-67
2022/05/11 11:41:52;;;;;;;7.30;2.20;;;;;;;-145.18;100.00;60484.78;5052495;28;20091;-66
2022/05/11 11:44:20;;;;;;;5.93;1.85;;;;;;;-145.18;100.00;60484.78;5034253;28;20114;-67
2022/05/11 11:46:47;;;;;;;4.85;1.60;;;;;;;-145.18;100.00;60484.78;5050522;28;20423;-67